Tiempo atmosférico en la estación meteorológica de Fresno de Cantiespino, Segovia (993 m.)

Fecha
DESCASC
Temp. máxima en grados centígrados (hora)
DESCASC
Temp. mínima en grados centígrados (hora)
DESCASC
Temp. media en grados centígrados
DESCASC
Racha de viento máxima en m/sg (hora)
DESCASC
Velocidad máxima media en intervalos de 10 minutos(hora)
DESCASC
Precipitaciones diarias en mm
DESCASC
Precipitaciones de 00:00 a 06:00 en mm
DESCASC
Precipitaciones de 06:00 a 12:00 en mm
DESCASC
Precipitaciones de 12:00 a 18:00 en mm
DESCASC
Precipitaciones de 18:00 a 24:00 en mm
DESCASC

Gráficas

Temp. máximas Temp. mínimas Temp. medias Precipitaciones Rachas de viento máximas Velocidades máximas media en intervalos de 10 minutos

Datos horarios

Fecha y hora oficial Temperatura (ºC) Velocidad del viento (km/h) Dirección del viento Racha (km/h) Dirección de racha Precipitación (mm) Presión (hPa) Tendencia (hPa) Humedad (%)
2017-08-20 23:00:00 19 3 Sur 15 Nordeste 0 -- -- 37
2017-08-20 22:00:00 24 4 Nordeste 18 Norte 0 -- -- 26
2017-08-20 21:00:00 27.8 12 Norte 20 Norte 0 -- -- 22
2017-08-20 20:00:00 30.8 10 Norte 18 Norte 0 -- -- 21
2017-08-20 19:00:00 31.5 13 Norte 22 Nordeste 0 -- -- 21
2017-08-20 18:00:00 31.6 12 Norte 22 Norte 0 -- -- 19
2017-08-20 17:00:00 31.2 10 Norte 18 Norte 0 -- -- 22
2017-08-20 16:00:00 30.6 9 Noroeste 25 Norte 0 -- -- 24
2017-08-20 15:00:00 29.7 14 Norte 26 Norte 0 -- -- 25
2017-08-20 14:00:00 28.3 10 Norte 24 Norte 0 -- -- 29
2017-08-20 13:00:00 27 8 Nordeste 23 Nordeste 0 -- -- 31
2017-08-20 12:00:00 25.1 9 Nordeste 17 Este 0 -- -- 36
2017-08-20 11:00:00 21.9 8 Nordeste 14 Nordeste 0 -- -- 41
2017-08-20 10:00:00 18.7 8 Nordeste 11 Norte 0 -- -- 54
2017-08-20 09:00:00 14.2 3 Sur 9 Norte 0 -- -- 72
2017-08-20 08:00:00 9.2 4 Oeste 11 Norte 0 -- -- 82
2017-08-20 07:00:00 8.7 8 Sur 10 Sudoeste 0 -- -- 84
2017-08-20 06:00:00 9.5 4 Sur 7 Sudoeste 0 -- -- 80
2017-08-20 05:00:00 10 4 Sur 11 Sudoeste 0 -- -- 79
2017-08-20 04:00:00 10.4 8 Sudoeste 10 Sur 0 -- -- 78
2017-08-20 03:00:00 11.2 7 Sudoeste 10 Sudoeste 0 -- -- 76
2017-08-20 02:00:00 12.5 7 Sudoeste 8 Sudoeste 0 -- -- 70
2017-08-20 01:00:00 14.7 8 Sudoeste 10 Sur 0 -- -- 62
2017-08-20 00:00:00 18.3 2 Sudeste 11 Este 0 -- -- 52
2017-08-19 23:00:00 21 9 Nordeste 18 Norte 0 -- -- 46
2017-08-19 22:00:00 22.8 9 Norte 13 Norte 0 -- -- 40
2017-08-19 21:00:00 25.9 13 Noroeste 24 Noroeste 0 -- -- 34
2017-08-19 20:00:00 28.2 17 Norte 25 Noroeste 0 -- -- 33
2017-08-19 19:00:00 29.5 19 Noroeste 35 Norte 0 -- -- 32
2017-08-19 18:00:00 30.8 18 Norte 31 Norte 0 -- -- 31
2017-08-19 17:00:00 31.1 17 Noroeste 27 Norte 0 -- -- 28
2017-08-19 16:00:00 30.5 8 Noroeste 21 Noroeste 0 -- -- 28
2017-08-19 15:00:00 29.1 10 Nordeste 23 Nordeste 0 -- -- 33
2017-08-19 14:00:00 27.8 10 Este 26 Norte 0 -- -- 36
2017-08-19 13:00:00 26.7 17 Norte 28 Nordeste 0 -- -- 41
2017-08-19 12:00:00 25.4 18 Nordeste 29 Norte 0 -- -- 44
2017-08-19 11:00:00 23.1 18 Nordeste 27 Nordeste 0 -- -- 48
2017-08-19 10:00:00 20.8 16 Este 21 Este 0 -- -- 54
2017-08-19 09:00:00 18.6 10 Este 16 Este 0 -- -- 63
2017-08-19 08:00:00 16.3 8 Este 17 Este 0 -- -- 69
2017-08-19 07:00:00 16.2 9 Nordeste 30 Este 0 -- -- 69
2017-08-19 06:00:00 17 17 Este 32 Nordeste 0 -- -- 69
2017-08-19 05:00:00 17.1 10 Nordeste 18 Nordeste 0 -- -- 69
2017-08-19 04:00:00 18 3 Oeste 9 Nordeste 0 -- -- 64
2017-08-19 03:00:00 19.2 5 Este 16 Este 0 -- -- 60
2017-08-19 02:00:00 20.4 9 Este 21 Este 0 -- -- 58
2017-08-19 01:00:00 21 9 Este 18 Nordeste 0 -- -- 55
2017-08-19 00:00:00 21.9 8 Este 19 Este 0 -- -- 53
2017-08-18 23:00:00 22 5 Nordeste 12 Norte 0 -- -- 44
2017-08-18 22:00:00 24.3 5 Norte 12 Norte 0 -- -- 37
2017-08-18 21:00:00 27.2 6 Nordeste 25 Norte 0 -- -- 33
2017-08-18 20:00:00 28.9 18 Norte 33 Norte 0 -- -- 32
2017-08-18 19:00:00 31.2 15 Noroeste 30 Oeste 0 -- -- 24
2017-08-18 18:00:00 31.8 21 Noroeste 31 Oeste 0 -- -- 22
2017-08-18 17:00:00 31.4 17 Noroeste 33 Oeste 0 -- -- 24
2017-08-18 16:00:00 31.2 18 Oeste 34 Oeste 0 -- -- 25
2017-08-18 15:00:00 30.9 14 Oeste 31 Oeste 0 -- -- 28
2017-08-18 14:00:00 29.5 16 Oeste 36 Noroeste 0 -- -- 29
2017-08-18 13:00:00 29.5 19 Noroeste 33 Noroeste 0 -- -- 29
2017-08-18 12:00:00 28.2 18 Oeste 30 Oeste 0 -- -- 30
2017-08-18 11:00:00 25.7 17 Oeste 26 Oeste 0 -- -- 35
2017-08-18 10:00:00 23.9 16 Sudoeste 27 Sudoeste 0 -- -- 38
2017-08-18 09:00:00 21.3 18 Sudoeste 30 Sur 0 -- -- 44
2017-08-18 08:00:00 18.3 13 Sudoeste 21 Sudoeste 0 -- -- 50
2017-08-18 07:00:00 16.8 9 Sudoeste 13 Sudoeste 0 -- -- 55
2017-08-18 06:00:00 14.9 0 Calma 8 Sudoeste 0 -- -- 63
2017-08-18 05:00:00 15.3 4 Sudoeste 9 Oeste 0 -- -- 61
2017-08-18 04:00:00 15.1 8 Sur 10 Sur 0 -- -- 62
2017-08-18 03:00:00 16.9 2 Este 16 Sudoeste 0 -- -- 54
2017-08-18 02:00:00 18 10 Sudoeste 12 Sudoeste 0 -- -- 52
2017-08-18 01:00:00 19 9 Sur 15 Sudoeste 0 -- -- 48
2017-08-18 00:00:00 19.3 10 Sudoeste 13 Sudoeste 0 -- -- 48
2017-08-17 23:00:00 21.3 11 Sur 13 Sur 0 -- -- 43
2017-08-17 22:00:00 23.5 10 Sudoeste 12 Sur 0 -- -- 39
2017-08-17 21:00:00 30.4 6 Noroeste 17 Noroeste 0 -- -- 26
2017-08-17 20:00:00 32.6 10 Noroeste 20 Noroeste 0 -- -- 23
2017-08-17 19:00:00 33.6 8 Oeste 20 Oeste 0 -- -- 22
2017-08-17 18:00:00 33.6 10 Oeste 26 Sudoeste 0 -- -- 22
2017-08-17 17:00:00 33.6 5 Sur 23 Noroeste 0 -- -- 22
2017-08-17 16:00:00 32.7 13 Noroeste 28 Oeste 0 -- -- 24
2017-08-17 15:00:00 32.6 13 Oeste 25 Oeste 0 -- -- 24
2017-08-17 14:00:00 31.3 9 Oeste 23 Oeste 0 -- -- 24
2017-08-17 13:00:00 29.9 9 Norte 23 Noroeste 0 -- -- 29
2017-08-17 12:00:00 27.9 11 Noroeste 19 Noroeste 0 -- -- 32
2017-08-17 11:00:00 25 7 Noroeste 11 Noroeste 0 -- -- 40
2017-08-17 10:00:00 21.3 2 Norte 6 Nordeste 0 -- -- 53
2017-08-17 09:00:00 16.2 3 Sudoeste 8 Sudoeste 0 -- -- 67
2017-08-17 08:00:00 11.1 8 Sudoeste 11 Sudoeste 0 -- -- 76
2017-08-17 07:00:00 10.9 8 Sudoeste 10 Sur 0 -- -- 72
2017-08-17 06:00:00 11.2 8 Sudoeste 10 Sur 0 -- -- 70
2017-08-17 05:00:00 11.8 8 Sudoeste 12 Sur 0 -- -- 67
2017-08-17 04:00:00 12.3 8 Sur 12 Sur 0 -- -- 63
2017-08-17 03:00:00 12.9 6 Sudoeste 9 Sudoeste 0 -- -- 59
2017-08-17 02:00:00 13.6 4 Sudoeste 10 Sudoeste 0 -- -- 55
2017-08-17 01:00:00 15 7 Sudoeste 13 Sur 0 -- -- 51
2017-08-17 00:00:00 16.1 9 Sur 12 Sur 0 -- -- 47
2017-08-16 23:00:00 17.8 9 Sudoeste 12 Sudoeste 0 -- -- 44
2017-08-16 22:00:00 20.8 9 Sur 10 Sur 0 -- -- 37
2017-08-16 21:00:00 26.8 8 Norte 19 Norte 0 -- -- 25
2017-08-16 20:00:00 29.3 14 Noroeste 23 Noroeste 0 -- -- 24
2017-08-16 19:00:00 29.9 15 Norte 27 Noroeste 0 -- -- 25
2017-08-16 18:00:00 30.7 15 Oeste 29 Oeste 0 -- -- 25
2017-08-16 17:00:00 30.3 12 Oeste 25 Noroeste 0 -- -- 25
2017-08-16 16:00:00 29.9 10 Oeste 23 Sudoeste 0 -- -- 25
2017-08-16 15:00:00 29.3 15 Sudoeste 24 Oeste 0 -- -- 25
2017-08-16 14:00:00 28.1 13 Noroeste 24 Oeste 0 -- -- 30
2017-08-16 13:00:00 26.6 10 Sudoeste 23 Noroeste 0 -- -- 36
2017-08-16 12:00:00 24.9 11 Oeste 25 Oeste 0 -- -- 38
2017-08-16 11:00:00 22.7 16 Oeste 23 Sudoeste 0 -- -- 43
2017-08-16 10:00:00 20.6 15 Sudoeste 27 Sudoeste 0 -- -- 45
2017-08-16 09:00:00 18.4 15 Sudoeste 21 Sudoeste 0 -- -- 47
2017-08-16 08:00:00 15 12 Sudoeste 16 Sudoeste 0 -- -- 51
2017-08-16 07:00:00 14.9 8 Sudoeste 14 Sudoeste 0 -- -- 50
2017-08-16 06:00:00 15.5 11 Sur 14 Sudoeste 0 -- -- 47
2017-08-16 05:00:00 16.2 10 Sudoeste 13 Sudoeste 0 -- -- 45
2017-08-16 04:00:00 18.2 9 Sudoeste 15 Sudoeste 0 -- -- 41
2017-08-16 03:00:00 19.2 10 Sudoeste 16 Sudoeste 0 -- -- 39
2017-08-16 02:00:00 19.9 11 Sudoeste 18 Sudoeste 0 -- -- 38
2017-08-16 01:00:00 20.2 11 Sudoeste 18 Sudoeste 0 -- -- 39
2017-08-16 00:00:00 19.5 11 Sur 15 Sudoeste 0 -- -- 42
2017-08-15 23:00:00 20 8 Sudoeste 11 Sudoeste 0 -- -- 40
2017-08-15 22:00:00 22.7 7 Sudoeste 12 Oeste 0 -- -- 34
2017-08-15 21:00:00 27.5 9 Oeste 21 Sudoeste 0 -- -- 27
2017-08-15 20:00:00 29.7 14 Sudoeste 27 Oeste 0 -- -- 28
2017-08-15 19:00:00 30.7 14 Oeste 35 Oeste 0 -- -- 25
2017-08-15 18:00:00 30.6 20 Oeste 33 Oeste 0 -- -- 24
2017-08-15 17:00:00 30.8 17 Oeste 37 Oeste 0 -- -- 27
2017-08-15 16:00:00 30.5 18 Oeste 41 Oeste 0 -- -- 28
2017-08-15 15:00:00 31.5 24 Oeste 41 Oeste 0 -- -- 26
2017-08-15 14:00:00 30.9 21 Sudoeste 39 Sudoeste 0 -- -- 29
2017-08-15 13:00:00 29.3 19 Oeste 28 Oeste 0 -- -- 32
2017-08-15 12:00:00 27.5 15 Oeste 27 Oeste 0 -- -- 37
2017-08-15 11:00:00 25.8 17 Sudoeste 28 Sudoeste 0 -- -- 37
2017-08-15 10:00:00 23.9 16 Sudoeste 24 Sudoeste 0 -- -- 41
2017-08-15 09:00:00 21.4 12 Sudoeste 22 Sudoeste 0 -- -- 55
2017-08-15 08:00:00 17 6 Sudoeste 12 Sudoeste 0 -- -- 67
2017-08-15 07:00:00 14.1 9 Sur 12 Sudoeste 0 -- -- 76
2017-08-15 06:00:00 14.2 8 Sudoeste 9 Sur 0 -- -- 77
2017-08-15 05:00:00 15.6 5 Oeste 13 Oeste 0 -- -- 73
2017-08-15 04:00:00 17.2 7 Oeste 11 Sudoeste 0 -- -- 66
2017-08-15 03:00:00 18.8 6 Sur 15 Nordeste 0 -- -- 62
2017-08-15 02:00:00 18.3 5 Sudoeste 12 Sur 0 -- -- 61
2017-08-15 01:00:00 19.5 6 Sur 14 Sur 0 -- -- 60
2017-08-15 00:00:00 22.1 5 Sur 14 Sur 0 -- -- 42
2017-08-14 23:00:00 23.9 8 Sur 48 Oeste 0 -- -- 37
2017-08-14 22:00:00 25.4 26 Oeste 51 Oeste 0 -- -- 36
2017-08-14 21:00:00 25.6 18 Sur 30 Sur 0 -- -- 33
2017-08-14 20:00:00 27 5 Sudoeste 12 Nordeste 0 -- -- 35
2017-08-14 19:00:00 27.5 7 Nordeste 24 Sur 0 -- -- 34
2017-08-14 18:00:00 30.2 11 Sudoeste 28 Sudoeste 0 -- -- 26
2017-08-14 17:00:00 31.1 6 Sur 53 Oeste 0.2 -- -- 27
2017-08-14 16:00:00 27 22 Oeste -- -- 3 -- -- 39
2017-08-14 15:00:00 30.9 11 Sudoeste 39 Sudoeste 0 -- -- 25
2017-08-14 14:00:00 31.3 13 Sudoeste 35 Sudoeste 0 -- -- 25
2017-08-14 13:00:00 30.4 16 Sudoeste 28 Sudoeste 0 -- -- 23
2017-08-14 12:00:00 28.3 8 Nordeste 14 Nordeste 0 -- -- 31
2017-08-14 11:00:00 25.5 5 Nordeste 10 Norte 0 -- -- 37
2017-08-14 10:00:00 22 4 Norte 7 Nordeste 0 -- -- 44
2017-08-14 09:00:00 18.6 2 Nordeste 4 Nordeste 0 -- -- 51
2017-08-14 08:00:00 14 0 Calma 8 Norte 0 -- -- 61
2017-08-14 07:00:00 12.4 0 Calma 7 Sur 0 -- -- 66
2017-08-14 06:00:00 13 2 Sur 6 Sudoeste 0 -- -- 61
2017-08-14 05:00:00 13.7 2 Nordeste 6 Nordeste 0 -- -- 57
2017-08-14 04:00:00 14 6 Sudoeste 12 Sudoeste 0 -- -- 56
2017-08-14 03:00:00 13.3 12 Sudoeste 18 Sur 0 -- -- 58
2017-08-14 02:00:00 15.3 6 Sur 10 Sur 0 -- -- 53
2017-08-14 01:00:00 19.4 0 Calma 9 Este 0 -- -- 43
2017-08-14 00:00:00 20.5 3 Sudeste 13 Sudoeste 0 -- -- 39
2017-08-13 23:00:00 19.8 9 Sur 13 Sur 0 -- -- 40
2017-08-13 22:00:00 22.8 3 Sur 8 Sudoeste 0 -- -- 32
2017-08-13 21:00:00 27.9 6 Sudoeste 12 Sudoeste 0 -- -- 26
2017-08-13 20:00:00 28.6 5 Sudoeste 12 Noroeste 0 -- -- 24
2017-08-13 19:00:00 30.5 6 Noroeste 22 Sudoeste 0 -- -- 19
2017-08-13 18:00:00 30.5 9 Sudoeste 20 Oeste 0 -- -- 18
2017-08-13 17:00:00 31.6 11 Noroeste 32 Oeste 0 -- -- 17
2017-08-13 16:00:00 31 13 Norte 34 Oeste 0 -- -- 18
2017-08-13 15:00:00 30.7 17 Oeste 37 Oeste 0 -- -- 18
2017-08-13 14:00:00 30 19 Noroeste 32 Oeste 0 -- -- 18
2017-08-13 13:00:00 29 15 Noroeste 24 Noroeste 0 -- -- 20
2017-08-13 12:00:00 26.4 8 Oeste 17 Oeste 0 -- -- 25
2017-08-13 11:00:00 23.4 5 Nordeste 10 Nordeste 0 -- -- 32
2017-08-13 10:00:00 19.4 3 Norte 5 Nordeste 0 -- -- 42
2017-08-13 09:00:00 14.3 0 Calma 9 Sur 0 -- -- 55
2017-08-13 08:00:00 8.6 7 Sudoeste 12 Sudoeste 0 -- -- 68
2017-08-13 07:00:00 8.2 8 Sudoeste 12 Sur 0 -- -- 67
2017-08-13 06:00:00 8.8 8 Sudoeste 11 Sudoeste 0 -- -- 64
2017-08-13 05:00:00 9.6 9 Sudoeste 11 Sudoeste 0 -- -- 60
2017-08-13 04:00:00 10.9 7 Sur 12 Sur 0 -- -- 55
2017-08-13 03:00:00 13.4 3 Sudoeste 8 Sur 0 -- -- 49
2017-08-13 02:00:00 18.1 4 Sur 28 Sudeste 0 -- -- 36
2017-08-13 01:00:00 19.1 13 Este 23 Este 0 -- -- 34
2017-08-13 00:00:00 15.4 11 Este 15 Este 0 -- -- 37
2017-08-12 23:00:00 15.2 6 Sudoeste 11 Sudoeste 0 -- -- 39
2017-08-12 22:00:00 19.5 4 Sudoeste 11 Norte 0 -- -- 31
2017-08-12 21:00:00 26.3 9 Norte 22 Norte 0 -- -- 20
2017-08-12 20:00:00 28.5 10 Norte 21 Norte 0 -- -- 18
2017-08-12 19:00:00 28.9 11 Norte 24 Norte 0 -- -- 16
2017-08-12 18:00:00 29.1 7 Norte 24 Norte 0 -- -- 16
2017-08-12 17:00:00 28.9 10 Noroeste 20 Norte 0 -- -- 17
2017-08-12 16:00:00 28.4 10 Norte 23 Noroeste 0 -- -- 16
2017-08-12 15:00:00 27.6 8 Noroeste 18 Noroeste 0 -- -- 17
2017-08-12 14:00:00 26.1 7 Noroeste 19 Norte 0 -- -- 17
2017-08-12 13:00:00 25 7 Norte 18 Nordeste 0 -- -- 18
2017-08-12 12:00:00 23.4 8 Nordeste 13 Nordeste 0 -- -- 22
2017-08-12 11:00:00 20.3 5 Norte 10 Norte 0 -- -- 34
2017-08-12 10:00:00 16.2 3 Norte 7 Noroeste 0 -- -- 44
2017-08-12 09:00:00 12 2 Nordeste 7 Sur 0 -- -- 55
2017-08-12 08:00:00 6 3 Sudoeste 9 Sudoeste 0 -- -- 72
2017-08-12 07:00:00 6 4 Sudoeste 12 Sur 0 -- -- 67
2017-08-12 06:00:00 6.4 7 Sudoeste 13 Sudoeste 0 -- -- 66
2017-08-12 05:00:00 7 5 Sudoeste 12 Sudoeste 0 -- -- 65
2017-08-12 04:00:00 7.4 6 Sudoeste 12 Sur 0 -- -- 65
2017-08-12 03:00:00 7.9 6 Sudoeste 11 Sudoeste 0 -- -- 62
2017-08-12 02:00:00 8.9 5 Sudoeste 12 Sur 0 -- -- 57
2017-08-12 01:00:00 9.6 9 Sudoeste 11 Sudoeste 0 -- -- 55
2017-08-12 00:00:00 11 9 Sudoeste 12 Sudoeste 0 -- -- 51
2017-08-11 23:00:00 13.1 6 Sur 10 Sur 0 -- -- 46
2017-08-11 22:00:00 19.1 7 Norte 15 Noroeste 0 -- -- 32
2017-08-11 21:00:00 21.9 10 Noroeste 23 Noroeste 0 -- -- 27
2017-08-11 20:00:00 24.1 15 Noroeste 27 Noroeste 0 -- -- 22
2017-08-11 19:00:00 25.2 14 Noroeste 24 Noroeste 0 -- -- 19
2017-08-11 18:00:00 25.1 13 Noroeste 24 Noroeste 0 -- -- 19
2017-08-11 17:00:00 24.5 8 Norte 25 Norte 0 -- -- 19
2017-08-11 16:00:00 24.3 11 Norte 26 Noroeste 0 -- -- 20
2017-08-11 15:00:00 23.1 11 Noroeste 21 Noroeste 0 -- -- 21
2017-08-11 14:00:00 21.7 7 Norte 21 Noroeste 0 -- -- 20
2017-08-11 13:00:00 20.1 10 Norte 20 Norte 0 -- -- 26
2017-08-11 12:00:00 18.4 7 Noroeste 15 Oeste 0 -- -- 34
2017-08-11 11:00:00 15.4 8 Noroeste 14 Noroeste 0 -- -- 47
2017-08-11 10:00:00 13.3 4 Norte 8 Norte 0 -- -- 59
2017-08-11 09:00:00 8.4 3 Sudeste 12 Norte 0 -- -- 79
2017-08-11 08:00:00 5.1 7 Sur 13 Sur 0 -- -- 86
2017-08-11 07:00:00 5 4 Sudoeste 9 Sur 0 -- -- 84
2017-08-11 06:00:00 5.5 6 Sudoeste 9 Sur 0 -- -- 83
2017-08-11 05:00:00 6 4 Sudoeste 8 Sudoeste 0 -- -- 80
2017-08-11 04:00:00 6.1 3 Sudoeste 10 Sudoeste 0 -- -- 80
2017-08-11 03:00:00 6.7 4 Sudoeste 6 Sudoeste 0 -- -- 76
2017-08-11 02:00:00 7.8 0 Calma 6 Norte 0 -- -- 70
2017-08-11 01:00:00 9.7 2 Sur 8 Norte 0 -- -- 63
2017-08-11 00:00:00 11.9 4 Norte 8 Norte 0 -- -- 58
2017-08-10 23:00:00 12.7 2 Sudeste 8 Nordeste 0 -- -- 53
2017-08-10 22:00:00 15.5 9 Norte 22 Norte 0 -- -- 46
2017-08-10 21:00:00 18.7 19 Norte 29 Norte 0 -- -- 36
2017-08-10 20:00:00 20.7 18 Norte 27 Noroeste 0 -- -- 37
2017-08-10 19:00:00 22.1 13 Norte 30 Norte 0 -- -- 32
2017-08-10 18:00:00 22.6 12 Noroeste 27 Noroeste 0 -- -- 31
2017-08-10 17:00:00 22.2 10 Noroeste 24 Norte 0 -- -- 30
2017-08-10 16:00:00 21.3 9 Noroeste 22 Norte 0 -- -- 35
2017-08-10 15:00:00 19.9 9 Nordeste 26 Nordeste 0 -- -- 37
2017-08-10 14:00:00 18.8 9 Norte 29 Este 0 -- -- 41
2017-08-10 13:00:00 17.2 11 Norte 21 Nordeste 0 -- -- 44
2017-08-10 12:00:00 15.7 6 Norte 20 Nordeste 0 -- -- 48
2017-08-10 11:00:00 14.4 11 Nordeste 24 Nordeste 0 -- -- 55
2017-08-10 10:00:00 12.1 6 Norte 12 Nordeste 0 -- -- 62
2017-08-10 09:00:00 8.9 2 Sur 9 Sudoeste 0 -- -- 72
2017-08-10 08:00:00 3.4 7 Sudoeste 12 Sudoeste 0 -- -- 89
2017-08-10 07:00:00 2.3 8 Sudoeste 11 Sur 0 -- -- 89
2017-08-10 06:00:00 2.2 8 Sur 12 Sur 0 -- -- 88
2017-08-10 05:00:00 2.7 9 Sur 12 Sur 0 -- -- 87
2017-08-10 04:00:00 3.8 6 Sudoeste 11 Sur 0 -- -- 82
2017-08-10 03:00:00 5.2 6 Sudoeste 8 Sudoeste 0 -- -- 77
2017-08-10 02:00:00 8 3 Nordeste 9 Nordeste 0 -- -- 67
2017-08-10 01:00:00 9.4 5 Nordeste 20 Norte 0 -- -- 63
2017-08-10 00:00:00 10.8 13 Nordeste 25 Norte 0 -- -- 60
2017-08-09 23:00:00 12 17 Norte 33 Norte 0 -- -- 55
2017-08-09 22:00:00 13.7 18 Norte 32 Nordeste 0 -- -- 48
2017-08-09 21:00:00 16.3 24 Norte 38 Norte 0 -- -- 42
2017-08-09 20:00:00 18.4 24 Norte 37 Norte 0 -- -- 34
2017-08-09 19:00:00 19.5 26 Norte 41 Noroeste 0 -- -- 37
2017-08-09 18:00:00 20.4 22 Norte 36 Noroeste 0 -- -- 34
2017-08-09 17:00:00 20.9 23 Noroeste 39 Norte 0 -- -- 36
2017-08-09 16:00:00 22.1 23 Noroeste 43 Norte 0 -- -- 36
2017-08-09 15:00:00 20.6 18 Noroeste 36 Noroeste 0 -- -- 42
2017-08-09 14:00:00 20.8 11 Oeste 31 Oeste 0 -- -- 42
2017-08-09 13:00:00 19.5 12 Noroeste 21 Noroeste 0 -- -- 43
2017-08-09 12:00:00 18.4 6 Sur 24 Oeste 0 -- -- 42
2017-08-09 11:00:00 16.8 15 Oeste 28 Oeste 0 -- -- 47
2017-08-09 10:00:00 15.5 17 Sudoeste 24 Sudoeste 0 -- -- 49
2017-08-09 09:00:00 13 6 Oeste 13 Oeste 0 -- -- 55
2017-08-09 08:00:00 7.4 6 Sudoeste 10 Sur 0 -- -- 74
2017-08-09 07:00:00 6 4 Sudoeste 11 Sur 0 -- -- 76
2017-08-09 06:00:00 6.5 6 Sudoeste 13 Oeste 0 -- -- 75
2017-08-09 05:00:00 6.9 5 Sudoeste 7 Sur 0 -- -- 72
2017-08-09 04:00:00 7.5 3 Sudoeste 7 Sudoeste 0 -- -- 68
2017-08-09 03:00:00 8.3 5 Sudoeste 11 Sur 0 -- -- 66
2017-08-09 02:00:00 9.3 6 Sur 9 Sur 0 -- -- 61
2017-08-09 01:00:00 11 6 Sur 11 Sudoeste 0 -- -- 56
2017-08-09 00:00:00 11.5 9 Sudoeste 13 Sur 0 -- -- 55
2017-08-08 23:00:00 12.8 10 Sur 13 Sur 0 -- -- 53
2017-08-08 22:00:00 16.1 5 Sudoeste 8 Sur 0 -- -- 42
2017-08-08 21:00:00 21.6 4 Nordeste 16 Nordeste 0 -- -- 31
2017-08-08 20:00:00 22.9 7 Norte 15 Norte 0 -- -- 29
2017-08-08 19:00:00 23.3 8 Norte 22 Oeste 0 -- -- 29
2017-08-08 18:00:00 23.2 11 Noroeste 28 Noroeste 0 -- -- 29
2017-08-08 17:00:00 23.1 11 Noroeste 29 Oeste 0 -- -- 29
2017-08-08 16:00:00 22.4 13 Noroeste 29 Noroeste 0 -- -- 31
2017-08-08 15:00:00 22 13 Noroeste 29 Noroeste 0 -- -- 36
2017-08-08 14:00:00 20.7 10 Noroeste 23 Oeste 0 -- -- 40
2017-08-08 13:00:00 19.2 14 Sudoeste 25 Sudoeste 0 -- -- 57
2017-08-08 12:00:00 16.9 10 Sudoeste 22 Oeste 0 -- -- 64
2017-08-08 11:00:00 16.1 8 Sudoeste 14 Sudoeste 0 -- -- 69
2017-08-08 10:00:00 13.5 8 Oeste 13 Sudoeste 0 -- -- 79
2017-08-08 09:00:00 13.2 8 Oeste 14 Oeste 0 -- -- 80
2017-08-08 08:00:00 11.4 10 Sudoeste 17 Oeste 0 -- -- 90
2017-08-08 07:00:00 11.4 10 Sudoeste 19 Sudoeste 0 -- -- 90
2017-08-08 06:00:00 11.3 9 Sur 17 Oeste 0 -- -- 90
2017-08-08 05:00:00 12.2 11 Sudoeste 20 Sudoeste 0 -- -- 86
2017-08-08 04:00:00 13.3 2 Oeste 20 Oeste 0 -- -- 80
2017-08-08 03:00:00 15.3 14 Noroeste 24 Sudoeste 0 -- -- 75
2017-08-08 02:00:00 18.7 16 Sudoeste 40 Oeste 0 -- -- 43
2017-08-08 01:00:00 19.6 20 Sudoeste 29 Sudoeste 0 -- -- 30
2017-08-08 00:00:00 19.7 13 Sudoeste 21 Sudoeste 0 -- -- 32
2017-08-07 23:00:00 19.1 9 Sur 11 Sur 0 -- -- 35
2017-08-07 22:00:00 23.5 3 Oeste 15 Oeste 0 -- -- 29
2017-08-07 21:00:00 26.6 8 Oeste 23 Oeste 0 -- -- 20
2017-08-07 20:00:00 28.3 13 Oeste 35 Oeste 0 -- -- 20
2017-08-07 19:00:00 29.2 22 Oeste 38 Oeste 0 -- -- 20
2017-08-07 18:00:00 30.8 21 Oeste 44 Oeste 0 -- -- 20
2017-08-07 17:00:00 31.9 27 Sudoeste 42 Sudoeste 0 -- -- 18
2017-08-07 16:00:00 31.6 26 Oeste 47 Oeste 0 -- -- 16
2017-08-07 15:00:00 30.8 27 Oeste 48 Oeste 0 -- -- 14
2017-08-07 14:00:00 30.8 26 Sudoeste 45 Sudoeste 0 -- -- 13
2017-08-07 13:00:00 30.2 31 Oeste 48 Oeste 0 -- -- 17
2017-08-07 12:00:00 29.3 21 Oeste 37 Oeste 0 -- -- 25
2017-08-07 11:00:00 26.5 6 Nordeste 10 Nordeste 0 -- -- 43
2017-08-07 10:00:00 22.1 4 Nordeste 7 Nordeste 0 -- -- 54
2017-08-07 09:00:00 18.1 0 Calma 4 Sur 0 -- -- 67
2017-08-07 08:00:00 13.2 4 Sudoeste 7 Sur 0 -- -- 83
2017-08-07 07:00:00 12.2 5 Sur 10 Sur 0 -- -- 84
2017-08-07 06:00:00 12.8 7 Sudoeste 8 Sudoeste 0 -- -- 82
2017-08-07 05:00:00 13.6 5 Sudoeste 8 Sudoeste 0 -- -- 79
2017-08-07 04:00:00 14.5 6 Sur 8 Sur 0 -- -- 75
2017-08-07 03:00:00 16.1 4 Sudoeste 8 Sudoeste 0 -- -- 70
2017-08-07 02:00:00 17.7 6 Sudoeste 7 Sur 0 -- -- 63
2017-08-07 01:00:00 20.2 2 Sudoeste 22 Este 0 -- -- 56
2017-08-07 00:00:00 22.1 18 Sudeste 32 Este 0 -- -- 51
2017-08-06 23:00:00 23 19 Este 38 Este 0 -- -- 48
2017-08-06 22:00:00 24.8 19 Este 34 Este 0 -- -- 44
2017-08-06 21:00:00 27.5 15 Este 37 Nordeste 0 -- -- 38
2017-08-06 20:00:00 29.6 23 Nordeste 35 Este 0 -- -- 35
2017-08-06 19:00:00 31.2 21 Nordeste 31 Este 0 -- -- 33
2017-08-06 18:00:00 31.5 17 Norte 32 Nordeste 0 -- -- 33
2017-08-06 17:00:00 31.3 20 Norte 42 Nordeste 0 -- -- 34
2017-08-06 16:00:00 30.6 24 Nordeste 39 Nordeste 0 -- -- 36
2017-08-06 15:00:00 29.3 20 Este 43 Nordeste 0 -- -- 39
2017-08-06 14:00:00 27.9 23 Nordeste 41 Nordeste 0 -- -- 42
2017-08-06 13:00:00 26.1 28 Nordeste 39 Nordeste 0 -- -- 45
2017-08-06 12:00:00 23.9 24 Nordeste 41 Nordeste 0 -- -- 51
2017-08-06 11:00:00 22 23 Nordeste 37 Nordeste 0 -- -- 55
2017-08-06 10:00:00 19.9 20 Este 36 Este 0 -- -- 59
2017-08-06 09:00:00 18.9 20 Nordeste 32 Nordeste 0 -- -- 63
2017-08-06 08:00:00 14.5 7 Nordeste 18 Este 0 -- -- 82
2017-08-06 07:00:00 13 6 Sur 9 Sudoeste 0 -- -- 85
2017-08-06 06:00:00 14.7 5 Sur 12 Sudoeste 0 -- -- 80
2017-08-06 05:00:00 16.8 3 Oeste 16 Nordeste 0 -- -- 73
2017-08-06 04:00:00 18.4 14 Nordeste 21 Nordeste 0 -- -- 72
2017-08-06 03:00:00 19.4 12 Nordeste 19 Este 0 -- -- 70
2017-08-06 02:00:00 20.5 11 Nordeste 18 Este 0 -- -- 67
2017-08-06 01:00:00 21.6 10 Este 25 Este 0 -- -- 63
2017-08-06 00:00:00 22.5 14 Nordeste 22 Nordeste 0 -- -- 61
2017-08-05 23:00:00 23.7 12 Nordeste 22 Norte 0 -- -- 57
2017-08-05 22:00:00 24.6 15 Norte 26 Noroeste 0 -- -- 42
2017-08-05 21:00:00 27.1 19 Noroeste 32 Norte 0 -- -- 39
2017-08-05 20:00:00 30.5 21 Norte 31 Norte 0 -- -- 34
2017-08-05 19:00:00 32.6 18 Noroeste 30 Norte 0 -- -- 31
2017-08-05 18:00:00 33.4 17 Oeste 36 Oeste 0 -- -- 28
2017-08-05 17:00:00 34.1 19 Oeste 38 Oeste 0 -- -- 27
2017-08-05 16:00:00 34.6 22 Oeste 43 Oeste 0 -- -- 24
2017-08-05 15:00:00 33.8 23 Oeste 39 Oeste 0 -- -- 26
2017-08-05 14:00:00 31.6 9 Norte 27 Noroeste 0 -- -- 31
2017-08-05 13:00:00 30.4 11 Nordeste 24 Oeste 0 -- -- 33
2017-08-05 12:00:00 29.1 5 Noroeste 17 Norte 0 -- -- 32
2017-08-05 11:00:00 27.4 10 Oeste 20 Oeste 0 -- -- 36
2017-08-05 10:00:00 25.7 10 Oeste 23 Sudoeste 0 -- -- 39
2017-08-05 09:00:00 23.2 11 Sudoeste 19 Sudoeste 0 -- -- 44
2017-08-05 08:00:00 19.1 9 Sudoeste 15 Sur 0 -- -- 55
2017-08-05 07:00:00 17.4 10 Sudoeste 15 Sudoeste 0 -- -- 59
2017-08-05 06:00:00 18.6 10 Sudoeste 13 Sur 0 -- -- 55
2017-08-05 05:00:00 19.2 10 Sur 14 Sur 0 -- -- 55
2017-08-05 04:00:00 19.9 10 Sur 13 Sudoeste 0 -- -- 54
2017-08-05 03:00:00 20.4 10 Sudoeste 15 Sudoeste 0 -- -- 53
2017-08-05 02:00:00 20.5 10 Sudoeste 18 Oeste 0 -- -- 56
2017-08-05 01:00:00 20.5 12 Sur 14 Sur 0 -- -- 57
2017-08-05 00:00:00 21.7 10 Sudoeste 13 Sudoeste 0 -- -- 53
2017-08-04 23:00:00 22.6 10 Sur 12 Sudoeste 0 -- -- 50
2017-08-04 22:00:00 25.8 7 Sur 13 Noroeste 0 -- -- 43
2017-08-04 21:00:00 31.1 8 Noroeste 17 Noroeste 0 -- -- 31
2017-08-04 20:00:00 32.7 7 Noroeste 27 Noroeste 0 -- -- 29
2017-08-04 19:00:00 33.6 6 Sudoeste 25 Oeste 0 -- -- 26
2017-08-04 18:00:00 33.8 12 Oeste 28 Oeste 0 -- -- 27
2017-08-04 17:00:00 33.2 12 Oeste 26 Oeste 0 -- -- 31
2017-08-04 16:00:00 32.8 13 Oeste 28 Noroeste 0 -- -- 31
2017-08-04 15:00:00 31.3 12 Noroeste 26 Oeste 0 -- -- 37
2017-08-04 14:00:00 29.9 13 Sudoeste 26 Sudoeste 0 -- -- 38
2017-08-04 13:00:00 28.2 11 Sudoeste 27 Sur 0 -- -- 44
2017-08-04 12:00:00 26.6 11 Oeste 22 Sudoeste 0 -- -- 46
2017-08-04 11:00:00 24.5 14 Sudoeste 21 Sudoeste 0 -- -- 52
2017-08-04 10:00:00 22.3 15 Sudoeste 21 Oeste 0 -- -- 58
2017-08-04 09:00:00 21.3 13 Sudoeste 21 Sudoeste 0 -- -- 60
2017-08-04 08:00:00 19.2 12 Sudoeste 18 Sudoeste 0 -- -- 66
2017-08-04 07:00:00 18.1 9 Sudoeste 15 Sudoeste 0 -- -- 68
2017-08-04 06:00:00 19.2 12 Sudoeste 17 Sudoeste 0 -- -- 63
2017-08-04 05:00:00 20 13 Sudoeste 18 Sudoeste 0 -- -- 60
2017-08-04 04:00:00 20.7 9 Sudoeste 15 Sudoeste 0 -- -- 56
2017-08-04 03:00:00 21.2 9 Sudoeste 14 Sudoeste 0 -- -- 53
2017-08-04 02:00:00 21.7 10 Sur 16 Sudoeste 0 -- -- 52
2017-08-04 01:00:00 21.5 9 Sudoeste 13 Sur 0 -- -- 51
2017-08-04 00:00:00 21.6 10 Sudoeste 13 Sudoeste 0 -- -- 45
2017-08-03 23:00:00 22.1 9 Sur 11 Sur 0 -- -- 39
2017-08-03 22:00:00 25.4 8 Sudoeste 15 Oeste 0 -- -- 32
2017-08-03 21:00:00 30.5 11 Oeste 22 Oeste 0 -- -- 25
2017-08-03 20:00:00 32.2 15 Oeste 27 Oeste 0 -- -- 21
2017-08-03 19:00:00 33.1 12 Oeste 32 Oeste 0 -- -- 19
2017-08-03 18:00:00 33.6 14 Oeste 32 Oeste 0 -- -- 18
2017-08-03 17:00:00 33.3 17 Oeste 32 Sudoeste 0 -- -- 19
2017-08-03 16:00:00 32.7 18 Sudoeste 39 Oeste 0 -- -- 20
2017-08-03 15:00:00 32 21 Oeste 37 Oeste 0 -- -- 20
2017-08-03 14:00:00 30.7 17 Oeste 26 Oeste 0 -- -- 23
2017-08-03 13:00:00 28.8 7 Oeste 18 Sudoeste 0 -- -- 23
2017-08-03 12:00:00 26.9 8 Sudoeste 23 Oeste 0 -- -- 30
2017-08-03 11:00:00 24.4 15 Sudoeste 23 Oeste 0 -- -- 30
2017-08-03 10:00:00 22.4 15 Sudoeste 23 Sudoeste 0 -- -- 31
2017-08-03 09:00:00 19.8 10 Sudoeste 14 Sudoeste 0 -- -- 38
2017-08-03 08:00:00 15.1 11 Sudoeste 15 Sudoeste 0 -- -- 51
2017-08-03 07:00:00 13.9 9 Sudoeste 15 Sudoeste 0 -- -- 49
2017-08-03 06:00:00 15.6 6 Sur 13 Sudoeste 0 -- -- 43
2017-08-03 05:00:00 16 9 Sudoeste 15 Sur 0 -- -- 44
2017-08-03 04:00:00 16.7 10 Sudoeste 18 Sudoeste 0 -- -- 43
2017-08-03 03:00:00 18.1 13 Sudoeste 17 Sudoeste 0 -- -- 40
2017-08-03 02:00:00 17.4 11 Sur 13 Sur 0 -- -- 46
2017-08-03 01:00:00 17.7 11 Sudoeste 14 Sur 0 -- -- 48
2017-08-03 00:00:00 19.1 12 Sur 15 Sur 0 -- -- 43
2017-08-02 23:00:00 20.8 8 Sudoeste 13 Sur 0 -- -- 42
2017-08-02 22:00:00 24.9 6 Sudoeste 17 Oeste 0 -- -- 35
2017-08-02 21:00:00 29.1 9 Sudoeste 19 Sudoeste 0 -- -- 28
2017-08-02 20:00:00 31.3 15 Sudoeste 24 Sudoeste 0 -- -- 25
2017-08-02 19:00:00 31.8 17 Oeste 27 Sudoeste 0 -- -- 24
2017-08-02 18:00:00 32.4 9 Oeste 24 Oeste 0 -- -- 23
2017-08-02 17:00:00 31.5 12 Noroeste 38 Oeste 0 -- -- 23
2017-08-02 16:00:00 31 6 Sur 21 Norte 0 -- -- 26
2017-08-02 15:00:00 30.1 11 Nordeste 22 Nordeste 0 -- -- 26
2017-08-02 14:00:00 29.7 13 Norte 21 Noroeste 0 -- -- 27
2017-08-02 13:00:00 28.5 8 Norte 18 Norte 0 -- -- 28
2017-08-02 12:00:00 26.6 6 Norte 14 Norte 0 -- -- 32
2017-08-02 11:00:00 24.3 6 Norte 12 Norte 0 -- -- 35
2017-08-02 10:00:00 22.2 6 Nordeste 12 Noroeste 0 -- -- 38
2017-08-02 09:00:00 18.5 0 Calma 5 Sur 0 -- -- 44
2017-08-02 08:00:00 13.6 3 Sudoeste 11 Sur 0 -- -- 63
2017-08-02 07:00:00 13.8 8 Sudoeste 12 Sudoeste 0 -- -- 56
2017-08-02 06:00:00 14.4 7 Sudoeste 13 Sur 0 -- -- 55
2017-08-02 05:00:00 15 10 Sur 15 Sudoeste 0 -- -- 56
2017-08-02 04:00:00 14.7 9 Sudoeste 12 Sur 0 -- -- 59
2017-08-02 03:00:00 14 8 Sudoeste 11 Sur 0 -- -- 61
2017-08-02 02:00:00 15.2 9 Sudoeste 13 Sudoeste 0 -- -- 57
2017-08-02 01:00:00 16.4 8 Sudoeste 13 Sur 0 -- -- 51
2017-08-02 00:00:00 17.8 10 Sudoeste 14 Sur 0 -- -- 47
2017-08-01 23:00:00 18.7 10 Sudoeste 13 Sur 0 -- -- 48
2017-08-01 22:00:00 22.9 6 Oeste 10 Noroeste 0 -- -- 37
2017-08-01 21:00:00 27.3 6 Noroeste 16 Sudoeste 0 -- -- 27
2017-08-01 20:00:00 29.6 10 Oeste 23 Sur 0 -- -- 22
2017-08-01 19:00:00 29.6 8 Sur 23 Sudoeste 0 -- -- 23
2017-08-01 18:00:00 30.2 13 Oeste 28 Noroeste 0 -- -- 22
2017-08-01 17:00:00 29.8 18 Oeste 35 Sudoeste 0 -- -- 24
2017-08-01 16:00:00 29.1 10 Sudoeste 28 Oeste 0 -- -- 26
2017-08-01 15:00:00 28.6 14 Sudoeste 30 Sudoeste 0 -- -- 25
2017-08-01 14:00:00 27.8 19 Sudoeste 30 Oeste 0 -- -- 28
2017-08-01 13:00:00 25.4 8 Oeste 17 Noroeste 0 -- -- 33
2017-08-01 12:00:00 24.1 3 Este 10 Nordeste 0 -- -- 36
2017-08-01 11:00:00 22.2 5 Sur 19 Oeste 0 -- -- 43
2017-08-01 10:00:00 19.7 12 Sudoeste 19 Oeste 0 -- -- 45
2017-08-01 09:00:00 17.4 7 Sur 12 Sudoeste 0 -- -- 53
2017-08-01 08:00:00 13.8 6 Sur 12 Sur 0 -- -- 63
2017-08-01 07:00:00 14 6 Sur 10 Sudoeste 0 -- -- 62
2017-08-01 06:00:00 14.7 8 Sur 12 Sudoeste 0 -- -- 60
2017-08-01 05:00:00 16.2 6 Sudoeste 10 Sudoeste 0 -- -- 56
2017-08-01 04:00:00 16.7 7 Sur 13 Sudoeste 0 -- -- 54
2017-08-01 03:00:00 16.9 8 Sur 11 Sur 0 -- -- 56
2017-08-01 02:00:00 17.9 8 Sudoeste 18 Sudoeste 0 -- -- 50
2017-08-01 01:00:00 18.7 12 Sudoeste 15 Sudoeste 0 -- -- 47
2017-08-01 00:00:00 18.9 8 Sur 17 Oeste 0 -- -- 46
2017-07-31 23:00:00 21.5 10 Noroeste 16 Noroeste 0 -- -- 40
2017-07-31 22:00:00 22 8 Oeste 11 Oeste 0 -- -- 30
2017-07-31 21:00:00 25.4 8 Oeste 31 Noroeste 0 -- -- 25
2017-07-31 20:00:00 28.1 18 Noroeste 30 Norte 0 -- -- 23
2017-07-31 19:00:00 29.4 13 Noroeste 36 Noroeste 0 -- -- 24
2017-07-31 18:00:00 31.2 8 Sudoeste 30 Oeste 0 -- -- 22
2017-07-31 17:00:00 31.1 10 Sudoeste 38 Oeste 0 -- -- 23
2017-07-31 16:00:00 30.4 15 Oeste 40 Oeste 0 -- -- 23
2017-07-31 15:00:00 29.9 19 Oeste 36 Oeste 0 -- -- 24
2017-07-31 14:00:00 28.4 25 Oeste 40 Oeste 0 -- -- 28
2017-07-31 13:00:00 27.9 24 Sudoeste 37 Oeste 0 -- -- 31
2017-07-31 12:00:00 27.4 20 Oeste 28 Oeste 0 -- -- 29
2017-07-31 11:00:00 25.4 4 Nordeste 13 Sudoeste 0 -- -- 37
2017-07-31 10:00:00 22.1 7 Sudoeste 17 Sudoeste 0 -- -- 42
2017-07-31 09:00:00 19 9 Sudoeste 15 Sudoeste 0 -- -- 46
2017-07-31 08:00:00 15.5 7 Sudoeste 18 Sudoeste 0 -- -- 53
2017-07-31 07:00:00 16.3 12 Sudoeste 18 Sudoeste 0 -- -- 47
2017-07-31 06:00:00 14.1 8 Sudoeste 11 Sudoeste 0 -- -- 54
2017-07-31 05:00:00 13.3 9 Sur 12 Sudoeste 0 -- -- 59
2017-07-31 04:00:00 14.6 9 Sudoeste 13 Sur 0 -- -- 53
2017-07-31 03:00:00 14.2 4 Sur 13 Sudoeste 0 -- -- 57
2017-07-31 02:00:00 15.3 12 Sur 15 Sur 0 -- -- 52
2017-07-31 01:00:00 16.3 10 Sudoeste 13 Sudoeste 0 -- -- 51
2017-07-31 00:00:00 17.8 9 Sur 12 Sur 0 -- -- 49
2017-07-30 23:00:00 20.3 11 Sur 13 Sur 0 -- -- 44
2017-07-30 22:00:00 25 6 Oeste 10 Oeste 0 -- -- 31
2017-07-30 21:00:00 29 4 Oeste 18 Noroeste 0 -- -- 26
2017-07-30 20:00:00 31.2 15 Oeste 35 Oeste 0 -- -- 23
2017-07-30 19:00:00 32.1 18 Noroeste 38 Oeste 0 -- -- 22
2017-07-30 18:00:00 32.5 20 Noroeste 41 Oeste 0 -- -- 21
2017-07-30 17:00:00 32.4 25 Oeste 41 Oeste 0 -- -- 23
2017-07-30 16:00:00 31.9 19 Sudoeste 42 Sudoeste 0 -- -- 25
2017-07-30 15:00:00 31.3 23 Oeste 36 Oeste 0 -- -- 25
2017-07-30 14:00:00 29.5 18 Sudoeste 29 Oeste 0 -- -- 29
2017-07-30 13:00:00 27.4 14 Oeste 35 Sudoeste 0 -- -- 35
2017-07-30 12:00:00 25.2 9 Oeste 23 Noroeste 0 -- -- 40
2017-07-30 11:00:00 23.6 11 Oeste 20 Oeste 0 -- -- 43
2017-07-30 10:00:00 22.2 8 Sudoeste 16 Sudoeste 0 -- -- 46
2017-07-30 09:00:00 20.1 7 Sur 13 Sur 0 -- -- 52
2017-07-30 08:00:00 17.5 9 Sudoeste 17 Sudoeste 0 -- -- 57
2017-07-30 07:00:00 16.8 10 Sur 15 Sur 0 -- -- 55
2017-07-30 06:00:00 17.5 10 Sudoeste 15 Sur 0 -- -- 51
2017-07-30 05:00:00 17.8 7 Sudoeste 15 Sudoeste 0 -- -- 48
2017-07-30 04:00:00 19.5 10 Sudoeste 15 Sudoeste 0 -- -- 43
2017-07-30 03:00:00 20.7 9 Sudoeste 17 Sudoeste 0 -- -- 40
2017-07-30 02:00:00 20.3 10 Sudoeste 15 Sudoeste 0 -- -- 40
2017-07-30 01:00:00 20.5 11 Sudoeste 17 Sudoeste 0 -- -- 41
2017-07-30 00:00:00 20.1 10 Sur 13 Sur 0 -- -- 44
2017-07-29 23:00:00 21.9 8 Sudoeste 13 Sudoeste 0 -- -- 40
2017-07-29 22:00:00 25.3 9 Sudoeste 14 Sudoeste 0 -- -- 33
2017-07-29 21:00:00 30.1 10 Sudoeste 22 Oeste 0 -- -- 25
2017-07-29 20:00:00 30.9 14 Oeste 27 Oeste 0 -- -- 23
2017-07-29 19:00:00 32.3 17 Oeste 28 Oeste 0 -- -- 21
2017-07-29 18:00:00 31.3 17 Sudoeste 34 Sudoeste 0 -- -- 24
2017-07-29 17:00:00 31.5 15 Oeste 34 Oeste 0 -- -- 24
2017-07-29 16:00:00 31.1 17 Oeste 37 Sudoeste 0 -- -- 27
2017-07-29 15:00:00 30.8 22 Sudoeste 44 Oeste 0 -- -- 28
2017-07-29 14:00:00 29.6 21 Sudoeste 38 Sudoeste 0 -- -- 32
2017-07-29 13:00:00 28.1 21 Oeste 34 Oeste 0 -- -- 33
2017-07-29 12:00:00 26.1 15 Sudoeste 31 Oeste 0 -- -- 44
2017-07-29 11:00:00 24.2 19 Oeste 29 Sudoeste 0 -- -- 45
2017-07-29 10:00:00 22.2 15 Sudoeste 30 Sudoeste 0 -- -- 49
2017-07-29 09:00:00 21 18 Sudoeste 29 Sudoeste 0 -- -- 44
2017-07-29 08:00:00 17.2 9 Sur 17 Sur 0 -- -- 57
2017-07-29 07:00:00 17.3 12 Sudoeste 19 Sudoeste 0 -- -- 50
2017-07-29 06:00:00 19.1 15 Sudoeste 28 Sudoeste 0 -- -- 44
2017-07-29 05:00:00 17.7 12 Sudoeste 17 Sudoeste 0 -- -- 50
2017-07-29 04:00:00 15.7 3 Sudoeste 11 Sudoeste 0 -- -- 59
2017-07-29 03:00:00 16.4 5 Sudoeste 12 Sur 0 -- -- 59
2017-07-29 02:00:00 17.6 11 Sudoeste 13 Sur 0 -- -- 57
2017-07-29 01:00:00 18.2 11 Sur 15 Sur 0 -- -- 55
2017-07-29 00:00:00 19.5 9 Sudoeste 13 Sur 0 -- -- 52
2017-07-28 23:00:00 21 9 Sudoeste 11 Sudoeste 0 -- -- 49
2017-07-28 22:00:00 26.1 2 Oeste 17 Oeste 0 -- -- 37
2017-07-28 21:00:00 30.5 12 Oeste 27 Noroeste 0 -- -- 25
2017-07-28 20:00:00 32.2 16 Oeste 26 Oeste 0 -- -- 18
2017-07-28 19:00:00 32.6 15 Sudoeste 32 Sudoeste 0 -- -- 17
2017-07-28 18:00:00 33.1 21 Oeste 37 Oeste 0 -- -- 16
2017-07-28 17:00:00 33 17 Oeste 32 Oeste 0 -- -- 17
2017-07-28 16:00:00 32.4 20 Oeste 35 Oeste 0 -- -- 22
2017-07-28 15:00:00 31.5 20 Oeste 34 Oeste 0 -- -- 19
2017-07-28 14:00:00 30.1 19 Oeste 32 Oeste 0 -- -- 26
2017-07-28 13:00:00 27.9 14 Oeste 26 Sudoeste 0 -- -- 37
2017-07-28 12:00:00 25.7 13 Oeste 27 Sudoeste 0 -- -- 48
2017-07-28 11:00:00 24 12 Oeste 22 Oeste 0 -- -- 53
2017-07-28 10:00:00 22.3 13 Sudoeste 27 Sudoeste 0 -- -- 55
2017-07-28 09:00:00 20.6 14 Sudoeste 22 Sudoeste 0 -- -- 51
2017-07-28 08:00:00 18.3 9 Sudoeste 20 Sudoeste 0 -- -- 53
2017-07-28 07:00:00 17 10 Sudoeste 21 Sudoeste 0 -- -- 51
2017-07-28 06:00:00 17.7 13 Sudoeste 19 Sudoeste 0 -- -- 50
2017-07-28 05:00:00 18.4 9 Sudoeste 17 Sudoeste 0 -- -- 49
2017-07-28 04:00:00 19.3 13 Sudoeste 19 Sudoeste 0 -- -- 42
2017-07-28 03:00:00 19.9 10 Sur 19 Sudoeste 0 -- -- 37
2017-07-28 02:00:00 20.4 10 Sudoeste 21 Sudoeste 0 -- -- 33
2017-07-28 01:00:00 18.7 11 Sudoeste 18 Sur 0 -- -- 38
2017-07-28 00:00:00 18.6 11 Sur 16 Sur 0 -- -- 41
2017-07-27 23:00:00 19.5 11 Sudoeste 14 Sudoeste 0 -- -- 44
2017-07-27 22:00:00 23.1 10 Sur 12 Sudoeste 0 -- -- 36
2017-07-27 21:00:00 30.6 9 Oeste 22 Oeste 0 -- -- 22
2017-07-27 20:00:00 32 13 Noroeste 28 Oeste 0 -- -- 22
2017-07-27 19:00:00 32.6 19 Oeste 32 Oeste 0 -- -- 21
2017-07-27 18:00:00 33 19 Oeste 36 Oeste 0 -- -- 22
2017-07-27 17:00:00 32.7 18 Noroeste 34 Oeste 0 -- -- 23
2017-07-27 16:00:00 32.3 18 Oeste 38 Noroeste 0 -- -- 25
2017-07-27 15:00:00 31.5 21 Oeste 39 Oeste 0 -- -- 25
2017-07-27 14:00:00 30.7 19 Sudoeste 35 Oeste 0 -- -- 27
2017-07-27 13:00:00 29.3 17 Sudoeste 30 Sudoeste 0 -- -- 27
2017-07-27 12:00:00 27.8 14 Oeste 23 Oeste 0 -- -- 30
2017-07-27 11:00:00 26 15 Sudoeste 27 Sudoeste 0 -- -- 33
2017-07-27 10:00:00 23.9 18 Oeste 25 Sudoeste 0 -- -- 36
2017-07-27 09:00:00 20.4 8 Sudoeste 12 Sudoeste 0 -- -- 45
2017-07-27 08:00:00 15.2 0 Calma 7 Sudoeste 0 -- -- 67
2017-07-27 07:00:00 12.7 2 Sudoeste 11 Sur 0 -- -- 67
2017-07-27 06:00:00 11.9 8 Sur 12 Sudoeste 0 -- -- 72
2017-07-27 05:00:00 12.6 8 Sur 10 Sur 0 -- -- 70
2017-07-27 04:00:00 13.2 6 Sudoeste 9 Sudoeste 0 -- -- 68
2017-07-27 03:00:00 14.7 0 Calma 4 Sudoeste 0 -- -- 60
2017-07-27 02:00:00 15.9 6 Sudoeste 13 Sudoeste 0 -- -- 57
2017-07-27 01:00:00 16.7 10 Sudoeste 13 Sur 0 -- -- 55
2017-07-27 00:00:00 17.2 10 Sudoeste 12 Sur 0 -- -- 55
2017-07-26 23:00:00 18.6 10 Sur 12 Sur 0 -- -- 51
2017-07-26 22:00:00 23.1 4 Oeste 11 Noroeste 0 -- -- 39
2017-07-26 21:00:00 28 7 Noroeste 21 Norte 0 -- -- 29
2017-07-26 20:00:00 28.6 13 Norte 23 Norte 0 -- -- 29
2017-07-26 19:00:00 29 12 Noroeste 23 Noroeste 0 -- -- 26
2017-07-26 18:00:00 28.8 8 Noroeste 29 Noroeste 0 -- -- 28
2017-07-26 17:00:00 28.7 15 Noroeste 28 Noroeste 0 -- -- 30
2017-07-26 16:00:00 27.7 9 Sudoeste 23 Oeste 0 -- -- 36
2017-07-26 15:00:00 26.7 13 Noroeste 21 Noroeste 0 -- -- 38
2017-07-26 14:00:00 25.7 7 Noroeste 22 Norte 0 -- -- 39
2017-07-26 13:00:00 24.4 8 Noroeste 21 Noroeste 0 -- -- 41
2017-07-26 12:00:00 23.5 12 Noroeste 22 Noroeste 0 -- -- 43
2017-07-26 11:00:00 21.8 9 Noroeste 19 Oeste 0 -- -- 47
2017-07-26 10:00:00 20 13 Sudoeste 21 Sudoeste 0 -- -- 46
2017-07-26 09:00:00 17.3 10 Sudoeste 15 Sudoeste 0 -- -- 50
2017-07-26 08:00:00 11.6 5 Sudoeste 12 Sur 0 -- -- 71
2017-07-26 07:00:00 9.9 5 Sudoeste 8 Sudoeste 0 -- -- 74
2017-07-26 06:00:00 10.2 5 Sur 10 Sur 0 -- -- 72
2017-07-26 05:00:00 9.9 8 Sudoeste 12 Sur 0 -- -- 74
2017-07-26 04:00:00 9.8 9 Sudoeste 10 Sur 0 -- -- 75
2017-07-26 03:00:00 10.5 7 Sudoeste 12 Sur 0 -- -- 72
2017-07-26 02:00:00 11.6 9 Sur 11 Sur 0 -- -- 67
2017-07-26 01:00:00 14.4 3 Sudeste 8 Nordeste 0 -- -- 58
2017-07-26 00:00:00 15.7 4 Sur 18 Noroeste 0 -- -- 53
2017-07-25 23:00:00 17.9 12 Norte 22 Noroeste 0 -- -- 46
2017-07-25 22:00:00 19.6 14 Noroeste 29 Norte 0 -- -- 41
2017-07-25 21:00:00 22.4 20 Norte 29 Noroeste 0 -- -- 32
2017-07-25 20:00:00 23.4 22 Norte 32 Norte 0 -- -- 28
2017-07-25 19:00:00 25.7 19 Noroeste 32 Noroeste 0 -- -- 25
2017-07-25 18:00:00 25.7 19 Noroeste 30 Oeste 0 -- -- 27
2017-07-25 17:00:00 25.7 14 Noroeste 39 Oeste 0 -- -- 28
2017-07-25 16:00:00 25.5 14 Norte 25 Noroeste 0 -- -- 30
2017-07-25 15:00:00 23.8 11 Norte 22 Noroeste 0 -- -- 35
2017-07-25 14:00:00 22.6 8 Norte 21 Oeste 0 -- -- 38
2017-07-25 13:00:00 21 9 Noroeste 18 Oeste 0 -- -- 44
2017-07-25 12:00:00 19.2 5 Norte 18 Oeste 0 -- -- 53
2017-07-25 11:00:00 17.5 6 Sudoeste 14 Norte 0 -- -- 57
2017-07-25 10:00:00 15.7 4 Norte 12 Noroeste 0 -- -- 67
2017-07-25 09:00:00 13 4 Noroeste 8 Sur 0 -- -- 78
2017-07-25 08:00:00 9.4 5 Sur 11 Sur 0 -- -- 90
2017-07-25 07:00:00 7.9 7 Sudoeste 11 Sudoeste 0 -- -- 90
2017-07-25 06:00:00 9 5 Sudoeste 8 Sudoeste 0 -- -- 87
2017-07-25 05:00:00 10.8 2 Sudoeste 8 Norte 0 -- -- 83
2017-07-25 04:00:00 12.2 2 Norte 7 Norte 0 -- -- 80
2017-07-25 03:00:00 13.1 4 Nordeste 9 Norte 0 -- -- 75
2017-07-25 02:00:00 14.1 6 Norte 11 Norte 0 -- -- 72
2017-07-25 01:00:00 15.2 8 Norte 12 Nordeste 0 -- -- 68
2017-07-25 00:00:00 16.9 4 Nordeste 15 Norte 0 -- -- 61
2017-07-24 23:00:00 18.8 11 Nordeste 17 Nordeste 0 -- -- 55
2017-07-24 22:00:00 20.7 14 Nordeste 26 Norte 0 -- -- 48
2017-07-24 21:00:00 23.2 22 Nordeste 32 Norte 0 -- -- 42
2017-07-24 20:00:00 26 15 Noroeste 39 Nordeste 0 -- -- 33
2017-07-24 19:00:00 26.4 11 Norte 34 Noroeste 0 -- -- 32
2017-07-24 18:00:00 26.3 11 Norte 26 Norte 0 -- -- 32
2017-07-24 17:00:00 26 15 Noroeste 31 Noroeste 0 -- -- 32
2017-07-24 16:00:00 25.7 10 Noroeste 26 Noroeste 0 -- -- 36
2017-07-24 15:00:00 24.7 9 Norte 27 Noroeste 0 -- -- 37
2017-07-24 14:00:00 24.1 14 Noroeste 26 Norte 0 -- -- 38
2017-07-24 13:00:00 23.2 12 Norte 26 Norte 0 -- -- 46
2017-07-24 12:00:00 22 14 Norte 25 Noroeste 0 -- -- 52
2017-07-24 11:00:00 20.5 12 Norte 22 Norte 0 -- -- 56
2017-07-24 10:00:00 18.3 9 Sudoeste 18 Oeste 0 -- -- 65
2017-07-24 09:00:00 16.2 14 Sudoeste 20 Sudoeste 0 -- -- 75
2017-07-24 08:00:00 14.2 15 Sur 19 Sur 0 -- -- 82
2017-07-24 07:00:00 13.2 9 Sudoeste 15 Sur 0 -- -- 81
2017-07-24 06:00:00 14 12 Sudoeste 17 Sudoeste 0 -- -- 76
2017-07-24 05:00:00 12.9 8 Sudoeste 9 Oeste 0 -- -- 69
2017-07-24 04:00:00 14 0 Calma 14 Oeste 0 -- -- 59
2017-07-24 03:00:00 16 14 Oeste 21 Noroeste 0 -- -- 51
2017-07-24 02:00:00 16.1 9 Sudoeste 23 Oeste 0 -- -- 52
2017-07-24 01:00:00 16.1 10 Sudoeste 14 Sudoeste 0 -- -- 51
2017-07-24 00:00:00 16.8 12 Sur 15 Sur 0 -- -- 50
2017-07-23 23:00:00 18.6 9 Sur 10 Sudoeste 0 -- -- 45
2017-07-23 22:00:00 23.6 6 Oeste 21 Noroeste 0 -- -- 31
2017-07-23 21:00:00 26.5 17 Noroeste 27 Oeste 0 -- -- 27
2017-07-23 20:00:00 28.2 18 Noroeste 31 Noroeste 0 -- -- 27
2017-07-23 19:00:00 29.1 13 Oeste 40 Oeste 0 -- -- 25
2017-07-23 18:00:00 29.1 19 Oeste 36 Sudoeste 0 -- -- 24
2017-07-23 17:00:00 29.4 20 Oeste 40 Oeste 0 -- -- 26
2017-07-23 16:00:00 28.3 22 Oeste 36 Oeste 0 -- -- 30
2017-07-23 15:00:00 28.5 19 Oeste 35 Sudoeste 0 -- -- 25
2017-07-23 14:00:00 27.8 18 Sudoeste 34 Oeste 0 -- -- 29
2017-07-23 13:00:00 26.4 10 Oeste 23 Oeste 0 -- -- 35
2017-07-23 12:00:00 25.3 8 Norte 15 Noroeste 0 -- -- 38
2017-07-23 11:00:00 23.1 8 Noroeste 17 Noroeste 0 -- -- 44
2017-07-23 10:00:00 20.7 7 Oeste 11 Oeste 0 -- -- 49
2017-07-23 09:00:00 17.8 5 Sur 9 Sudoeste 0 -- -- 61
2017-07-23 08:00:00 13.2 5 Sur 9 Sudoeste 0 -- -- 71
2017-07-23 07:00:00 12.3 5 Sudoeste 10 Sudoeste 0 -- -- 70
2017-07-23 06:00:00 13.1 9 Sudoeste 12 Sudoeste 0 -- -- 67
2017-07-23 05:00:00 13.6 9 Sudoeste 12 Sudoeste 0 -- -- 63
2017-07-23 04:00:00 13.8 10 Sur 12 Sur 0 -- -- 58
2017-07-23 03:00:00 14.1 11 Sur 13 Sur 0 -- -- 55
2017-07-23 02:00:00 14.7 9 Sudoeste 13 Sur 0 -- -- 55
2017-07-23 01:00:00 15.5 10 Sur 12 Sur 0 -- -- 54
2017-07-23 00:00:00 15.8 10 Sur 13 Sur 0 -- -- 53
2017-07-22 23:00:00 17.1 11 Sudoeste 12 Sudoeste 0 -- -- 52
2017-07-22 22:00:00 21.6 5 Oeste 15 Oeste 0 -- -- 38
2017-07-22 21:00:00 26.6 12 Oeste 25 Oeste 0 -- -- 28
2017-07-22 20:00:00 27.9 13 Noroeste 28 Oeste 0 -- -- 26
2017-07-22 19:00:00 28.6 18 Oeste 32 Oeste 0 -- -- 25
2017-07-22 18:00:00 28.7 14 Oeste 32 Oeste 0 -- -- 28
2017-07-22 17:00:00 28.1 9 Oeste 28 Oeste 0 -- -- 28
2017-07-22 16:00:00 27.6 15 Oeste 31 Sudoeste 0 -- -- 29
2017-07-22 15:00:00 26.5 13 Oeste 32 Oeste 0 -- -- 32
2017-07-22 14:00:00 25.1 19 Oeste 30 Oeste 0 -- -- 34
2017-07-22 13:00:00 23.3 14 Oeste 22 Oeste 0 -- -- 36
2017-07-22 12:00:00 21.7 11 Oeste 22 Oeste 0 -- -- 38
2017-07-22 11:00:00 20.1 13 Oeste 22 Sudoeste 0 -- -- 44
2017-07-22 10:00:00 18.5 13 Sudoeste 26 Sudoeste 0 -- -- 49
2017-07-22 09:00:00 16.6 19 Sudoeste 28 Oeste 0 -- -- 50
2017-07-22 08:00:00 14.2 11 Sudoeste 14 Sudoeste 0 -- -- 55
2017-07-22 07:00:00 13.3 9 Sudoeste 16 Sudoeste 0 -- -- 55
2017-07-22 06:00:00 14.1 10 Sudoeste 14 Sudoeste 0 -- -- 52
2017-07-22 05:00:00 15 9 Sudoeste 17 Sudoeste 0 -- -- 49
2017-07-22 04:00:00 15.9 13 Sudoeste 23 Sudoeste 0 -- -- 47
2017-07-22 03:00:00 16.9 17 Sudoeste 25 Sur 0 -- -- 44
2017-07-22 02:00:00 16.4 13 Sur 18 Sur 0 -- -- 46
2017-07-22 01:00:00 15.1 11 Sur 14 Sur 0 -- -- 57
2017-07-22 00:00:00 16.2 10 Sur 12 Sur 0 -- -- 55